Flight Track Log - Related Links

Times and Time Zones

All times are in EDT time to prevent confusion due to time zone crossing. See the WEW1540 flight status page for this flight to view local times or setup timezone preferences in your user account.

Time Position Orientation Groundspeed Altitude Reporting Facility
EDT Latitude Longitude Course Direction KTS MPH feet Rate Location/Type
Thu 07:04:58 PM 51.4000 -109.0833 142° Southeast 20 23 8,500  Level Winnipeg Center
Thu 07:05:58 PM 51.3500 -109.0333 148° Southeast 140 161 9,100 300 Climbing Winnipeg Center
Thu 07:06:58 PM 51.3167 -109.0000 148° Southeast 180 207 9,100  Level Winnipeg Center
Thu 07:07:58 PM 51.2667 -108.9333 140° Southeast 190 219 9,100 -50 Level Winnipeg Center
Thu 07:08:58 PM 51.2333 -108.8667 129° Southeast 200 230 9,000 -50 Descending Winnipeg Center
Thu 07:09:00 PM 51.1840 -108.7651 142° Southeast  Level Estimated
Thu 07:09:59 PM 51.1833 -108.8000 140° Southeast 190 219 9,000  Level Winnipeg Center
Thu 07:10:00 PM 51.1470 -108.7191 142° Southeast  Level FlightAware Approximate
Thu 07:10:58 PM 51.1500 -108.7667 148° Southeast 180 207 9,000  Level Winnipeg Center
Thu 07:11:00 PM 51.1099 -108.6731 142° Southeast  Level FlightAware Approximate
Thu 07:11:58 PM 51.1167 -108.7000 129° Southeast 190 219 9,000  Level Winnipeg Center
Thu 07:12:58 PM 51.0667 -108.6667 157° South 190 219 9,000  Level Winnipeg Center
Thu 07:13:58 PM 51.0167 -108.6333 157° South 200 230 9,000  Level Winnipeg Center
Thu 07:14:59 PM 50.9667 -108.5667 140° Southeast 200 230 9,000  Level Winnipeg Center
Thu 07:15:58 PM 50.9500 -108.5000 112° Southeast 190 219 9,000  Level Winnipeg Center
Thu 07:16:58 PM 50.9000 -108.4667 157° South 190 219 9,000  Level Winnipeg Center
Thu 07:19:00 PM 50.8636 -108.4157 139° Southeast  Level FlightAware Approximate
Thu 07:26:00 PM 50.6166 -108.0729 139° Southeast  Level FlightAware Approximate
Thu 07:27:00 PM 50.5796 -108.0258 143° Southeast  Level FlightAware Approximate
Thu 07:28:00 PM 50.5421 -107.9813 143° Southeast  Level FlightAware Approximate
Thu 07:29:00 PM 50.5046 -107.9369 143° Southeast  Level FlightAware Approximate
Thu 07:30:00 PM 50.4670 -107.8926 143° Southeast  Level FlightAware Approximate
Thu 07:31:00 PM 50.4294 -107.8484 143° Southeast  Level FlightAware Approximate
Thu 07:32:00 PM 50.3915 -107.8049 144° Southeast  Level FlightAware Approximate
Thu 07:33:00 PM 50.3534 -107.7620 144° Southeast  Level FlightAware Approximate
Thu 07:34:00 PM 50.3152 -107.7191 144° Southeast  Level FlightAware Approximate
Thu 07:35:00 PM 50.2919 -107.6906 144° Southeast  Level Estimated
Thu 07:36:00 PM 50.2919 -107.6906 144° Southeast  Level Estimated
Thu 07:37:00 PM 50.2919 -107.6906 144° Southeast  Level Estimated
Thu 07:38:00 PM 50.2919 -107.6906 144° Southeast  Level Estimated

Login

Don't have an account? Register now (free) for customized features, flight alerts, and more!